Main page
METAR-TAF:

METAR-TAF

Airports :

Parma Airport

Parma, Italy

latitude: 44-49-17N, longitude: 010-17-41E, elevation: 50 m

Current weather observation

The report was made 56 minutes ago, at 11:50 UTC
Wind 4 kt from the North
Temperature 21°C
Humidity 64%
Pressure 1017 hPa
Visibility: 6000 m
Few clouds at a height of 4000 ft

METAR: LIMP 181150Z 35004KT 6000 FEW040 21/14 Q1017

Time: 14:46 (12:46 UTC)

Forecast

The report was made 1 hour and 46 minutes ago, at 11:00 UTC
Forecast valid from 18 at 12 UTC to 19 at 12 UTC
Wind 5 kt from the West
Visibility: 6000 m
Scattered clouds at a height of 3000 ft

TAF: LIMP 181100Z 1812/1912 26005KT 6000 SCT030

Weather observations and forecasts of more than 4000 airports (METAR and TAF reports).

The available stations are represented by yellow and red dots on the map.

Hover mouse over dot to see the name of the station.

Then click to see weather observations and forecasts.

To change the map : click on the green buttons with a black cross to zoom in, on the green button with a dash to zoom out, or on the green arrows for adjacent maps.


METAR-TAF: